Allisona, Tennessee
Current Conditions -  °F | °C
As of 5:53 PM on Thursday 18 Dec 2014 (Local Time) from KBNA Reporting Station
Overcast Overcast  
Wind Chill: 38°   Ceiling: 5000
Heat Index: 38°   Visibility: 10mi
Dew Point: 31°   Wind: 3mph
Humidity: 76%   Direction: 30°NNE
Pressure: 30.23"   Gusts: NA
Location:  35.7808°N, 86.7221°W
Report Text: KBNA 182353Z 03003KT 10SM OVC050 03/M01 A3023 RMK AO2 SLP240 T00331006 10039 20022 53003
Loading
Personal Weather Stations






























Interactive Weather Map New forecast layout! Learn more

10-Day Weather Forecast

Advertisements
Track Severe Weather on mobile